sensor_id;sensor_type;location;lat;lon;timestamp;temperature;humidity
41884;DHT22;27566;50.930;5.328;2023-11-19T00:01:28;14.20;94.50
41884;DHT22;27566;50.930;5.328;2023-11-19T00:03:54;14.20;94.60
41884;DHT22;27566;50.930;5.328;2023-11-19T00:08:46;14.20;94.40
41884;DHT22;27566;50.930;5.328;2023-11-19T00:11:12;14.20;94.60
41884;DHT22;27566;50.930;5.328;2023-11-19T00:13:41;14.30;94.60
41884;DHT22;27566;50.930;5.328;2023-11-19T00:16:07;14.30;94.70
41884;DHT22;27566;50.930;5.328;2023-11-19T00:18:33;14.40;94.70
41884;DHT22;27566;50.930;5.328;2023-11-19T00:20:59;14.30;94.70
41884;DHT22;27566;50.930;5.328;2023-11-19T00:23:25;14.30;94.60
41884;DHT22;27566;50.930;5.328;2023-11-19T00:25:50;14.30;94.60
41884;DHT22;27566;50.930;5.328;2023-11-19T00:28:16;14.30;94.60
41884;DHT22;27566;50.930;5.328;2023-11-19T00:30:42;14.30;94.40
41884;DHT22;27566;50.930;5.328;2023-11-19T00:33:08;14.30;94.60
41884;DHT22;27566;50.930;5.328;2023-11-19T00:35:33;14.30;94.60
41884;DHT22;27566;50.930;5.328;2023-11-19T00:37:59;14.30;94.60
41884;DHT22;27566;50.930;5.328;2023-11-19T00:40:26;14.30;94.70
41884;DHT22;27566;50.930;5.328;2023-11-19T00:42:52;14.30;94.70
41884;DHT22;27566;50.930;5.328;2023-11-19T00:45:18;14.30;94.70
41884;DHT22;27566;50.930;5.328;2023-11-19T00:47:43;14.30;94.40
41884;DHT22;27566;50.930;5.328;2023-11-19T00:50:09;14.20;94.60
41884;DHT22;27566;50.930;5.328;2023-11-19T00:52:35;14.20;94.60
41884;DHT22;27566;50.930;5.328;2023-11-19T00:55:03;14.20;94.60
41884;DHT22;27566;50.930;5.328;2023-11-19T00:57:30;14.20;94.60
41884;DHT22;27566;50.930;5.328;2023-11-19T00:59:57;14.10;94.50
41884;DHT22;27566;50.930;5.328;2023-11-19T01:02:23;14.10;94.60
41884;DHT22;27566;50.930;5.328;2023-11-19T01:04:48;14.10;94.70
41884;DHT22;27566;50.930;5.328;2023-11-19T01:07:14;14.10;94.80
41884;DHT22;27566;50.930;5.328;2023-11-19T01:09:42;14.20;94.80
41884;DHT22;27566;50.930;5.328;2023-11-19T01:12:08;14.20;94.70
41884;DHT22;27566;50.930;5.328;2023-11-19T01:14:36;14.20;94.80
41884;DHT22;27566;50.930;5.328;2023-11-19T01:17:02;14.20;94.80
41884;DHT22;27566;50.930;5.328;2023-11-19T01:19:28;14.30;94.80
41884;DHT22;27566;50.930;5.328;2023-11-19T01:21:54;14.30;94.70
41884;DHT22;27566;50.930;5.328;2023-11-19T01:24:20;14.30;94.70
41884;DHT22;27566;50.930;5.328;2023-11-19T01:26:46;14.40;94.70
41884;DHT22;27566;50.930;5.328;2023-11-19T01:29:13;14.30;94.70
41884;DHT22;27566;50.930;5.328;2023-11-19T01:31:42;14.40;94.80
41884;DHT22;27566;50.930;5.328;2023-11-19T01:34:08;14.40;94.60
41884;DHT22;27566;50.930;5.328;2023-11-19T01:36:34;14.40;94.60
41884;DHT22;27566;50.930;5.328;2023-11-19T01:39:00;14.40;94.60
41884;DHT22;27566;50.930;5.328;2023-11-19T01:41:26;14.40;94.50
41884;DHT22;27566;50.930;5.328;2023-11-19T01:43:52;14.40;94.50
41884;DHT22;27566;50.930;5.328;2023-11-19T01:46:17;14.40;94.50
41884;DHT22;27566;50.930;5.328;2023-11-19T01:48:45;14.40;94.50
41884;DHT22;27566;50.930;5.328;2023-11-19T01:51:12;14.50;94.60
41884;DHT22;27566;50.930;5.328;2023-11-19T01:53:39;14.50;94.50
41884;DHT22;27566;50.930;5.328;2023-11-19T01:56:09;14.50;94.50
41884;DHT22;27566;50.930;5.328;2023-11-19T01:58:37;14.50;94.50
41884;DHT22;27566;50.930;5.328;2023-11-19T02:01:07;14.50;94.50
41884;DHT22;27566;50.930;5.328;2023-11-19T02:03:34;14.50;94.40
41884;DHT22;27566;50.930;5.328;2023-11-19T02:06:00;14.50;94.50
41884;DHT22;27566;50.930;5.328;2023-11-19T02:08:26;14.50;94.40
41884;DHT22;27566;50.930;5.328;2023-11-19T02:10:52;14.50;94.30
41884;DHT22;27566;50.930;5.328;2023-11-19T02:13:18;14.50;94.20
41884;DHT22;27566;50.930;5.328;2023-11-19T02:15:44;14.50;94.20
41884;DHT22;27566;50.930;5.328;2023-11-19T02:18:24;14.50;94.30
41884;DHT22;27566;50.930;5.328;2023-11-19T02:20:59;14.40;94.50
41884;DHT22;27566;50.930;5.328;2023-11-19T02:23:28;14.40;94.50
41884;DHT22;27566;50.930;5.328;2023-11-19T02:27:02;14.40;94.60
41884;DHT22;27566;50.930;5.328;2023-11-19T02:28:55;14.40;94.60
41884;DHT22;27566;50.930;5.328;2023-11-19T02:31:21;14.40;94.60
41884;DHT22;27566;50.930;5.328;2023-11-19T02:33:48;14.40;94.60
41884;DHT22;27566;50.930;5.328;2023-11-19T02:36:15;14.40;94.60
41884;DHT22;27566;50.930;5.328;2023-11-19T02:38:42;14.40;94.60
41884;DHT22;27566;50.930;5.328;2023-11-19T02:41:09;14.40;94.20
41884;DHT22;27566;50.930;5.328;2023-11-19T02:43:36;14.40;94.50
41884;DHT22;27566;50.930;5.328;2023-11-19T02:46:03;14.40;94.40
41884;DHT22;27566;50.930;5.328;2023-11-19T02:48:35;14.40;94.40
41884;DHT22;27566;50.930;5.328;2023-11-19T02:51:04;14.30;94.30
41884;DHT22;27566;50.930;5.328;2023-11-19T02:53:35;14.20;94.30
41884;DHT22;27566;50.930;5.328;2023-11-19T02:56:01;14.10;94.10
41884;DHT22;27566;50.930;5.328;2023-11-19T02:58:32;14.10;94.20
41884;DHT22;27566;50.930;5.328;2023-11-19T03:00:57;14.00;94.00
41884;DHT22;27566;50.930;5.328;2023-11-19T03:03:25;14.00;94.20
41884;DHT22;27566;50.930;5.328;2023-11-19T03:05:56;14.00;94.30
41884;DHT22;27566;50.930;5.328;2023-11-19T03:08:22;13.90;94.20
41884;DHT22;27566;50.930;5.328;2023-11-19T03:10:49;13.90;94.20
41884;DHT22;27566;50.930;5.328;2023-11-19T03:13:15;13.80;94.00
41884;DHT22;27566;50.930;5.328;2023-11-19T03:15:41;13.70;94.20
41884;DHT22;27566;50.930;5.328;2023-11-19T03:18:07;13.70;93.90
41884;DHT22;27566;50.930;5.328;2023-11-19T03:20:33;13.60;94.00
41884;DHT22;27566;50.930;5.328;2023-11-19T03:22:59;13.50;94.10
41884;DHT22;27566;50.930;5.328;2023-11-19T03:25:27;13.50;94.20
41884;DHT22;27566;50.930;5.328;2023-11-19T03:27:59;13.50;94.30
41884;DHT22;27566;50.930;5.328;2023-11-19T03:30:24;13.50;94.20
41884;DHT22;27566;50.930;5.328;2023-11-19T03:32:50;13.50;94.10
41884;DHT22;27566;50.930;5.328;2023-11-19T03:35:33;13.40;94.00
41884;DHT22;27566;50.930;5.328;2023-11-19T03:37:59;13.40;94.00
41884;DHT22;27566;50.930;5.328;2023-11-19T03:40:26;13.30;93.90
41884;DHT22;27566;50.930;5.328;2023-11-19T03:42:53;13.20;93.90
41884;DHT22;27566;50.930;5.328;2023-11-19T03:45:19;13.20;94.10
41884;DHT22;27566;50.930;5.328;2023-11-19T03:48:08;13.30;94.10
41884;DHT22;27566;50.930;5.328;2023-11-19T03:50:34;13.30;94.40
41884;DHT22;27566;50.930;5.328;2023-11-19T03:53:00;13.40;94.60
41884;DHT22;27566;50.930;5.328;2023-11-19T03:55:28;13.40;94.30
41884;DHT22;27566;50.930;5.328;2023-11-19T03:57:55;13.40;94.20
41884;DHT22;27566;50.930;5.328;2023-11-19T04:00:20;13.30;94.10
41884;DHT22;27566;50.930;5.328;2023-11-19T04:02:46;13.30;94.10
41884;DHT22;27566;50.930;5.328;2023-11-19T04:05:12;13.20;93.70
41884;DHT22;27566;50.930;5.328;2023-11-19T04:07:38;13.20;93.90
41884;DHT22;27566;50.930;5.328;2023-11-19T04:10:04;13.10;93.90
41884;DHT22;27566;50.930;5.328;2023-11-19T04:12:30;13.10;93.90
41884;DHT22;27566;50.930;5.328;2023-11-19T04:14:56;13.00;94.00
41884;DHT22;27566;50.930;5.328;2023-11-19T04:17:21;13.00;94.10
41884;DHT22;27566;50.930;5.328;2023-11-19T04:19:48;13.00;94.00
41884;DHT22;27566;50.930;5.328;2023-11-19T04:22:14;13.00;94.00
41884;DHT22;27566;50.930;5.328;2023-11-19T04:24:40;12.90;94.00
41884;DHT22;27566;50.930;5.328;2023-11-19T04:27:06;13.00;94.10
41884;DHT22;27566;50.930;5.328;2023-11-19T04:29:32;13.00;94.10
41884;DHT22;27566;50.930;5.328;2023-11-19T04:31:58;13.00;94.10
41884;DHT22;27566;50.930;5.328;2023-11-19T04:34:26;12.90;94.00
41884;DHT22;27566;50.930;5.328;2023-11-19T04:36:52;13.00;94.00
41884;DHT22;27566;50.930;5.328;2023-11-19T04:39:18;12.90;93.80
41884;DHT22;27566;50.930;5.328;2023-11-19T04:41:48;12.90;94.00
41884;DHT22;27566;50.930;5.328;2023-11-19T04:44:23;12.90;94.10
41884;DHT22;27566;50.930;5.328;2023-11-19T04:46:49;12.90;93.90
41884;DHT22;27566;50.930;5.328;2023-11-19T04:49:14;12.80;93.80
41884;DHT22;27566;50.930;5.328;2023-11-19T04:51:43;12.80;93.90
41884;DHT22;27566;50.930;5.328;2023-11-19T04:54:09;12.80;93.90
41884;DHT22;27566;50.930;5.328;2023-11-19T04:56:36;12.80;94.10
41884;DHT22;27566;50.930;5.328;2023-11-19T04:59:05;12.90;94.10
41884;DHT22;27566;50.930;5.328;2023-11-19T05:01:32;12.90;94.10
41884;DHT22;27566;50.930;5.328;2023-11-19T05:03:58;13.00;94.30
41884;DHT22;27566;50.930;5.328;2023-11-19T05:06:28;13.00;94.20
41884;DHT22;27566;50.930;5.328;2023-11-19T05:08:55;13.00;94.20
41884;DHT22;27566;50.930;5.328;2023-11-19T05:11:22;13.10;94.20
41884;DHT22;27566;50.930;5.328;2023-11-19T05:13:48;13.10;94.10
41884;DHT22;27566;50.930;5.328;2023-11-19T05:16:14;13.20;94.20
41884;DHT22;27566;50.930;5.328;2023-11-19T05:18:41;13.20;94.10
41884;DHT22;27566;50.930;5.328;2023-11-19T05:21:07;13.30;94.10
41884;DHT22;27566;50.930;5.328;2023-11-19T05:23:33;13.30;93.90
41884;DHT22;27566;50.930;5.328;2023-11-19T05:26:02;13.30;93.80
41884;DHT22;27566;50.930;5.328;2023-11-19T05:28:28;13.20;93.70
41884;DHT22;27566;50.930;5.328;2023-11-19T05:30:54;13.20;93.50
41884;DHT22;27566;50.930;5.328;2023-11-19T05:33:21;13.10;93.40
41884;DHT22;27566;50.930;5.328;2023-11-19T05:35:46;13.00;93.30
41884;DHT22;27566;50.930;5.328;2023-11-19T05:38:12;12.90;93.40
41884;DHT22;27566;50.930;5.328;2023-11-19T05:40:38;12.80;93.30
41884;DHT22;27566;50.930;5.328;2023-11-19T05:43:05;12.70;93.30
41884;DHT22;27566;50.930;5.328;2023-11-19T05:45:32;12.60;93.40
41884;DHT22;27566;50.930;5.328;2023-11-19T05:47:58;12.60;93.30
41884;DHT22;27566;50.930;5.328;2023-11-19T05:50:24;12.50;93.30
41884;DHT22;27566;50.930;5.328;2023-11-19T05:52:50;12.50;93.40
41884;DHT22;27566;50.930;5.328;2023-11-19T05:55:16;12.40;93.20
41884;DHT22;27566;50.930;5.328;2023-11-19T06:00:08;12.30;93.10
41884;DHT22;27566;50.930;5.328;2023-11-19T06:02:36;12.30;93.30
41884;DHT22;27566;50.930;5.328;2023-11-19T06:05:04;12.20;93.40
41884;DHT22;27566;50.930;5.328;2023-11-19T06:07:33;12.20;93.40
41884;DHT22;27566;50.930;5.328;2023-11-19T06:09:59;12.20;93.30
41884;DHT22;27566;50.930;5.328;2023-11-19T06:12:25;12.10;93.50
41884;DHT22;27566;50.930;5.328;2023-11-19T06:14:53;12.10;93.50
41884;DHT22;27566;50.930;5.328;2023-11-19T06:17:18;12.00;93.50
41884;DHT22;27566;50.930;5.328;2023-11-19T06:19:44;12.00;93.60
41884;DHT22;27566;50.930;5.328;2023-11-19T06:22:10;12.00;93.60
41884;DHT22;27566;50.930;5.328;2023-11-19T06:24:36;12.00;93.60
41884;DHT22;27566;50.930;5.328;2023-11-19T06:27:02;12.00;93.60
41884;DHT22;27566;50.930;5.328;2023-11-19T06:29:28;12.00;93.50
41884;DHT22;27566;50.930;5.328;2023-11-19T06:31:54;12.00;93.60
41884;DHT22;27566;50.930;5.328;2023-11-19T06:34:19;11.90;93.50
41884;DHT22;27566;50.930;5.328;2023-11-19T06:36:45;11.90;93.60
41884;DHT22;27566;50.930;5.328;2023-11-19T06:39:11;11.90;93.60
41884;DHT22;27566;50.930;5.328;2023-11-19T06:41:37;11.90;93.50
41884;DHT22;27566;50.930;5.328;2023-11-19T06:44:04;11.80;93.50
41884;DHT22;27566;50.930;5.328;2023-11-19T06:46:31;11.80;93.50
41884;DHT22;27566;50.930;5.328;2023-11-19T06:48:57;11.80;93.60
41884;DHT22;27566;50.930;5.328;2023-11-19T06:51:23;11.80;93.60
41884;DHT22;27566;50.930;5.328;2023-11-19T06:53:50;11.80;93.60
41884;DHT22;27566;50.930;5.328;2023-11-19T06:56:23;11.80;93.60
41884;DHT22;27566;50.930;5.328;2023-11-19T06:58:50;11.80;93.80
41884;DHT22;27566;50.930;5.328;2023-11-19T07:01:16;11.90;93.90
41884;DHT22;27566;50.930;5.328;2023-11-19T07:03:47;12.00;94.00
41884;DHT22;27566;50.930;5.328;2023-11-19T07:06:13;12.10;93.90
41884;DHT22;27566;50.930;5.328;2023-11-19T07:08:41;12.10;93.90
41884;DHT22;27566;50.930;5.328;2023-11-19T07:11:07;12.10;93.90
41884;DHT22;27566;50.930;5.328;2023-11-19T07:13:35;12.10;93.80
41884;DHT22;27566;50.930;5.328;2023-11-19T07:16:01;12.10;93.80
41884;DHT22;27566;50.930;5.328;2023-11-19T07:18:27;12.10;93.70
41884;DHT22;27566;50.930;5.328;2023-11-19T07:20:52;12.10;93.50
41884;DHT22;27566;50.930;5.328;2023-11-19T07:23:19;12.10;93.90
41884;DHT22;27566;50.930;5.328;2023-11-19T07:25:44;12.60;93.80
41884;DHT22;27566;50.930;5.328;2023-11-19T07:28:13;12.00;93.60
41884;DHT22;27566;50.930;5.328;2023-11-19T07:30:40;12.00;93.70
41884;DHT22;27566;50.930;5.328;2023-11-19T07:33:05;12.00;93.70
41884;DHT22;27566;50.930;5.328;2023-11-19T07:35:32;12.00;93.70
41884;DHT22;27566;50.930;5.328;2023-11-19T07:37:58;12.10;93.70
41884;DHT22;27566;50.930;5.328;2023-11-19T07:40:26;12.10;93.60
41884;DHT22;27566;50.930;5.328;2023-11-19T07:42:52;12.10;93.60
41884;DHT22;27566;50.930;5.328;2023-11-19T07:45:18;12.10;93.70
41884;DHT22;27566;50.930;5.328;2023-11-19T07:47:44;12.20;93.80
41884;DHT22;27566;50.930;5.328;2023-11-19T07:50:12;12.10;93.60
41884;DHT22;27566;50.930;5.328;2023-11-19T07:52:40;12.20;93.60
41884;DHT22;27566;50.930;5.328;2023-11-19T07:55:06;12.20;93.40
41884;DHT22;27566;50.930;5.328;2023-11-19T07:57:32;12.20;93.60
41884;DHT22;27566;50.930;5.328;2023-11-19T07:59:58;12.20;93.60
41884;DHT22;27566;50.930;5.328;2023-11-19T08:02:23;12.30;93.50
41884;DHT22;27566;50.930;5.328;2023-11-19T08:04:50;12.30;93.40
41884;DHT22;27566;50.930;5.328;2023-11-19T08:07:18;12.40;93.50
41884;DHT22;27566;50.930;5.328;2023-11-19T08:09:44;12.40;93.50
41884;DHT22;27566;50.930;5.328;2023-11-19T08:12:09;12.40;93.40
41884;DHT22;27566;50.930;5.328;2023-11-19T08:14:35;12.40;93.50
41884;DHT22;27566;50.930;5.328;2023-11-19T08:17:02;12.40;93.50
41884;DHT22;27566;50.930;5.328;2023-11-19T08:19:28;12.50;93.60
41884;DHT22;27566;50.930;5.328;2023-11-19T08:21:54;12.60;93.40
41884;DHT22;27566;50.930;5.328;2023-11-19T08:24:20;12.60;93.40
41884;DHT22;27566;50.930;5.328;2023-11-19T08:26:46;12.60;93.30
41884;DHT22;27566;50.930;5.328;2023-11-19T08:29:12;12.70;93.30
41884;DHT22;27566;50.930;5.328;2023-11-19T08:31:39;12.80;93.40
41884;DHT22;27566;50.930;5.328;2023-11-19T08:34:05;12.90;93.30
41884;DHT22;27566;50.930;5.328;2023-11-19T08:36:34;13.00;93.40
41884;DHT22;27566;50.930;5.328;2023-11-19T08:39:01;13.00;93.10
41884;DHT22;27566;50.930;5.328;2023-11-19T08:41:27;13.10;92.50
41884;DHT22;27566;50.930;5.328;2023-11-19T08:43:53;13.30;93.00
41884;DHT22;27566;50.930;5.328;2023-11-19T08:46:18;13.50;93.30
41884;DHT22;27566;50.930;5.328;2023-11-19T08:48:45;13.60;92.90
41884;DHT22;27566;50.930;5.328;2023-11-19T08:51:12;13.70;92.80
41884;DHT22;27566;50.930;5.328;2023-11-19T08:53:38;13.70;92.70
41884;DHT22;27566;50.930;5.328;2023-11-19T08:56:04;13.60;92.10
41884;DHT22;27566;50.930;5.328;2023-11-19T08:58:31;13.60;92.30
41884;DHT22;27566;50.930;5.328;2023-11-19T09:00:57;13.60;92.20
41884;DHT22;27566;50.930;5.328;2023-11-19T09:03:23;13.60;91.80
41884;DHT22;27566;50.930;5.328;2023-11-19T09:05:52;13.60;91.90
41884;DHT22;27566;50.930;5.328;2023-11-19T09:08:18;13.60;91.90
41884;DHT22;27566;50.930;5.328;2023-11-19T09:10:44;13.60;92.00
41884;DHT22;27566;50.930;5.328;2023-11-19T09:13:09;13.70;92.10
41884;DHT22;27566;50.930;5.328;2023-11-19T09:15:35;13.70;92.20
41884;DHT22;27566;50.930;5.328;2023-11-19T09:18:01;13.70;92.00
41884;DHT22;27566;50.930;5.328;2023-11-19T09:20:27;13.70;92.30
41884;DHT22;27566;50.930;5.328;2023-11-19T09:22:53;13.70;92.10
41884;DHT22;27566;50.930;5.328;2023-11-19T09:25:19;13.80;91.90
41884;DHT22;27566;50.930;5.328;2023-11-19T09:44:37;14.40;91.60
41884;DHT22;27566;50.930;5.328;2023-11-19T09:47:05;14.60;90.80
41884;DHT22;27566;50.930;5.328;2023-11-19T09:49:33;14.70;91.00
41884;DHT22;27566;50.930;5.328;2023-11-19T09:51:59;14.80;90.20
41884;DHT22;27566;50.930;5.328;2023-11-19T09:54:25;14.80;90.20
41884;DHT22;27566;50.930;5.328;2023-11-19T09:56:52;14.70;91.20
41884;DHT22;27566;50.930;5.328;2023-11-19T09:59:18;14.80;91.70
41884;DHT22;27566;50.930;5.328;2023-11-19T10:01:45;14.80;91.70
41884;DHT22;27566;50.930;5.328;2023-11-19T10:04:15;14.70;91.60
41884;DHT22;27566;50.930;5.328;2023-11-19T10:06:42;14.70;91.50
41884;DHT22;27566;50.930;5.328;2023-11-19T10:09:07;14.60;91.30
41884;DHT22;27566;50.930;5.328;2023-11-19T10:11:33;14.50;91.40
41884;DHT22;27566;50.930;5.328;2023-11-19T10:13:59;14.50;91.10
41884;DHT22;27566;50.930;5.328;2023-11-19T10:16:30;14.60;91.00
41884;DHT22;27566;50.930;5.328;2023-11-19T10:18:59;14.70;91.00
41884;DHT22;27566;50.930;5.328;2023-11-19T10:21:25;14.80;90.40
41884;DHT22;27566;50.930;5.328;2023-11-19T10:23:55;15.00;90.20
41884;DHT22;27566;50.930;5.328;2023-11-19T10:26:23;14.90;90.40
41884;DHT22;27566;50.930;5.328;2023-11-19T10:28:49;15.10;90.30
41884;DHT22;27566;50.930;5.328;2023-11-19T10:31:17;15.20;90.10
41884;DHT22;27566;50.930;5.328;2023-11-19T10:33:44;15.30;89.30
41884;DHT22;27566;50.930;5.328;2023-11-19T10:36:11;15.40;90.00
41884;DHT22;27566;50.930;5.328;2023-11-19T10:38:41;15.50;89.60
41884;DHT22;27566;50.930;5.328;2023-11-19T10:41:27;15.60;89.50
41884;DHT22;27566;50.930;5.328;2023-11-19T10:43:53;15.60;88.20
41884;DHT22;27566;50.930;5.328;2023-11-19T10:46:19;15.50;88.40
41884;DHT22;27566;50.930;5.328;2023-11-19T10:48:49;15.50;89.70
41884;DHT22;27566;50.930;5.328;2023-11-19T10:51:19;15.40;89.30
41884;DHT22;27566;50.930;5.328;2023-11-19T10:53:49;15.40;88.80
41884;DHT22;27566;50.930;5.328;2023-11-19T10:56:20;15.50;88.40
41884;DHT22;27566;50.930;5.328;2023-11-19T10:58:51;15.70;89.60
41884;DHT22;27566;50.930;5.328;2023-11-19T11:01:20;15.90;88.30
41884;DHT22;27566;50.930;5.328;2023-11-19T11:03:51;16.00;85.80
41884;DHT22;27566;50.930;5.328;2023-11-19T11:06:20;16.00;85.70
41884;DHT22;27566;50.930;5.328;2023-11-19T11:08:48;16.10;87.20
41884;DHT22;27566;50.930;5.328;2023-11-19T11:11:16;16.20;84.90
41884;DHT22;27566;50.930;5.328;2023-11-19T11:13:47;16.40;86.60
41884;DHT22;27566;50.930;5.328;2023-11-19T11:16:17;16.50;86.00
41884;DHT22;27566;50.930;5.328;2023-11-19T11:18:45;16.70;85.60
41884;DHT22;27566;50.930;5.328;2023-11-19T11:21:15;16.70;84.40
41884;DHT22;27566;50.930;5.328;2023-11-19T11:37:53;16.60;81.90
41884;DHT22;27566;50.930;5.328;2023-11-19T11:40:20;16.60;84.40
41884;DHT22;27566;50.930;5.328;2023-11-19T11:42:49;16.50;84.10
41884;DHT22;27566;50.930;5.328;2023-11-19T11:45:18;16.30;84.20
41884;DHT22;27566;50.930;5.328;2023-11-19T11:50:20;15.90;85.70
41884;DHT22;27566;50.930;5.328;2023-11-19T11:57:50;15.90;85.00
41884;DHT22;27566;50.930;5.328;2023-11-19T12:00:27;15.90;85.90
41884;DHT22;27566;50.930;5.328;2023-11-19T12:02:57;16.00;86.70
41884;DHT22;27566;50.930;5.328;2023-11-19T12:05:23;16.00;86.40
41884;DHT22;27566;50.930;5.328;2023-11-19T12:08:18;16.00;84.70
41884;DHT22;27566;50.930;5.328;2023-11-19T12:10:48;16.00;85.20
41884;DHT22;27566;50.930;5.328;2023-11-19T12:13:18;16.00;83.10
41884;DHT22;27566;50.930;5.328;2023-11-19T12:18:31;16.40;83.30
41884;DHT22;27566;50.930;5.328;2023-11-19T12:20:58;16.30;83.70
41884;DHT22;27566;50.930;5.328;2023-11-19T12:23:31;16.40;82.00
41884;DHT22;27566;50.930;5.328;2023-11-19T12:25:58;16.50;82.60
41884;DHT22;27566;50.930;5.328;2023-11-19T12:28:24;16.50;81.70
41884;DHT22;27566;50.930;5.328;2023-11-19T12:30:52;16.50;80.70
41884;DHT22;27566;50.930;5.328;2023-11-19T12:33:19;16.60;79.60
41884;DHT22;27566;50.930;5.328;2023-11-19T12:35:47;16.60;80.10
41884;DHT22;27566;50.930;5.328;2023-11-19T12:38:24;16.60;78.50
41884;DHT22;27566;50.930;5.328;2023-11-19T12:41:03;16.70;78.30
41884;DHT22;27566;50.930;5.328;2023-11-19T12:43:29;16.90;76.20
41884;DHT22;27566;50.930;5.328;2023-11-19T12:45:56;16.80;74.90
41884;DHT22;27566;50.930;5.328;2023-11-19T12:48:22;16.70;74.60
41884;DHT22;27566;50.930;5.328;2023-11-19T12:50:55;16.60;75.60
41884;DHT22;27566;50.930;5.328;2023-11-19T12:53:26;16.60;75.80
41884;DHT22;27566;50.930;5.328;2023-11-19T12:55:53;16.40;74.90
41884;DHT22;27566;50.930;5.328;2023-11-19T12:58:31;16.40;75.00
41884;DHT22;27566;50.930;5.328;2023-11-19T13:01:08;16.40;74.60
41884;DHT22;27566;50.930;5.328;2023-11-19T13:03:38;16.40;74.50
41884;DHT22;27566;50.930;5.328;2023-11-19T13:06:11;16.40;72.20
41884;DHT22;27566;50.930;5.328;2023-11-19T13:08:42;16.40;69.90
41884;DHT22;27566;50.930;5.328;2023-11-19T13:11:10;16.40;71.30
41884;DHT22;27566;50.930;5.328;2023-11-19T13:13:56;16.30;72.30
41884;DHT22;27566;50.930;5.328;2023-11-19T13:16:23;16.30;73.20
41884;DHT22;27566;50.930;5.328;2023-11-19T13:18:49;16.20;73.20
41884;DHT22;27566;50.930;5.328;2023-11-19T13:21:15;16.20;72.70
41884;DHT22;27566;50.930;5.328;2023-11-19T13:23:41;16.20;73.60
41884;DHT22;27566;50.930;5.328;2023-11-19T13:26:09;16.20;73.20
41884;DHT22;27566;50.930;5.328;2023-11-19T13:28:35;16.30;73.30
41884;DHT22;27566;50.930;5.328;2023-11-19T13:31:02;16.40;72.60
41884;DHT22;27566;50.930;5.328;2023-11-19T13:33:28;16.30;72.00
41884;DHT22;27566;50.930;5.328;2023-11-19T13:35:55;16.10;72.40
41884;DHT22;27566;50.930;5.328;2023-11-19T13:38:21;16.00;73.10
41884;DHT22;27566;50.930;5.328;2023-11-19T13:40:48;15.90;73.60
41884;DHT22;27566;50.930;5.328;2023-11-19T13:43:14;15.80;74.00
41884;DHT22;27566;50.930;5.328;2023-11-19T13:45:40;15.80;74.30
41884;DHT22;27566;50.930;5.328;2023-11-19T13:48:06;15.80;74.30
41884;DHT22;27566;50.930;5.328;2023-11-19T13:50:32;15.80;74.60
41884;DHT22;27566;50.930;5.328;2023-11-19T13:52:59;15.70;74.70
41884;DHT22;27566;50.930;5.328;2023-11-19T13:55:25;15.80;75.00
41884;DHT22;27566;50.930;5.328;2023-11-19T13:57:51;16.00;74.80
41884;DHT22;27566;50.930;5.328;2023-11-19T14:00:17;16.10;74.10
41884;DHT22;27566;50.930;5.328;2023-11-19T14:02:46;16.10;73.30
41884;DHT22;27566;50.930;5.328;2023-11-19T14:05:13;16.10;73.20
41884;DHT22;27566;50.930;5.328;2023-11-19T14:07:40;16.00;72.70
41884;DHT22;27566;50.930;5.328;2023-11-19T14:10:07;16.00;72.40
41884;DHT22;27566;50.930;5.328;2023-11-19T14:12:35;15.90;73.20
41884;DHT22;27566;50.930;5.328;2023-11-19T14:15:07;15.90;73.90
41884;DHT22;27566;50.930;5.328;2023-11-19T14:17:35;15.80;73.80
41884;DHT22;27566;50.930;5.328;2023-11-19T14:20:01;15.70;74.00
41884;DHT22;27566;50.930;5.328;2023-11-19T14:22:28;15.70;74.00
41884;DHT22;27566;50.930;5.328;2023-11-19T14:24:56;15.70;73.90
41884;DHT22;27566;50.930;5.328;2023-11-19T14:27:22;15.60;73.70
41884;DHT22;27566;50.930;5.328;2023-11-19T14:29:48;15.50;73.60
41884;DHT22;27566;50.930;5.328;2023-11-19T14:32:14;15.20;74.30
41884;DHT22;27566;50.930;5.328;2023-11-19T14:34:39;15.10;74.80
41884;DHT22;27566;50.930;5.328;2023-11-19T14:37:05;15.00;75.50
41884;DHT22;27566;50.930;5.328;2023-11-19T14:39:32;14.90;76.00
41884;DHT22;27566;50.930;5.328;2023-11-19T14:41:58;14.80;76.00
41884;DHT22;27566;50.930;5.328;2023-11-19T14:44:27;14.70;76.40
41884;DHT22;27566;50.930;5.328;2023-11-19T14:46:52;14.70;77.00
41884;DHT22;27566;50.930;5.328;2023-11-19T14:49:18;14.70;77.40
41884;DHT22;27566;50.930;5.328;2023-11-19T14:51:44;14.70;77.50
41884;DHT22;27566;50.930;5.328;2023-11-19T14:54:10;14.80;77.40
41884;DHT22;27566;50.930;5.328;2023-11-19T14:56:36;14.80;77.80
41884;DHT22;27566;50.930;5.328;2023-11-19T14:59:04;14.80;76.50
41884;DHT22;27566;50.930;5.328;2023-11-19T15:01:30;14.90;76.70
41884;DHT22;27566;50.930;5.328;2023-11-19T15:03:56;14.90;76.20
41884;DHT22;27566;50.930;5.328;2023-11-19T15:06:25;14.90;76.50
41884;DHT22;27566;50.930;5.328;2023-11-19T15:08:53;14.90;75.60
41884;DHT22;27566;50.930;5.328;2023-11-19T15:11:20;14.90;76.00
41884;DHT22;27566;50.930;5.328;2023-11-19T15:13:47;14.90;76.10
41884;DHT22;27566;50.930;5.328;2023-11-19T15:16:13;14.90;75.90
41884;DHT22;27566;50.930;5.328;2023-11-19T15:18:40;14.90;76.60
41884;DHT22;27566;50.930;5.328;2023-11-19T15:21:06;14.90;76.80
41884;DHT22;27566;50.930;5.328;2023-11-19T15:23:33;14.80;76.70
41884;DHT22;27566;50.930;5.328;2023-11-19T15:25:59;14.80;76.40
41884;DHT22;27566;50.930;5.328;2023-11-19T15:28:25;14.90;76.10
41884;DHT22;27566;50.930;5.328;2023-11-19T15:30:51;14.80;75.60
41884;DHT22;27566;50.930;5.328;2023-11-19T15:33:18;14.80;75.50
41884;DHT22;27566;50.930;5.328;2023-11-19T15:35:43;14.80;75.40
41884;DHT22;27566;50.930;5.328;2023-11-19T15:38:09;14.70;75.60
41884;DHT22;27566;50.930;5.328;2023-11-19T15:40:36;14.70;75.70
41884;DHT22;27566;50.930;5.328;2023-11-19T15:43:04;14.60;76.00
41884;DHT22;27566;50.930;5.328;2023-11-19T15:45:33;14.70;75.90
41884;DHT22;27566;50.930;5.328;2023-11-19T15:48:04;14.70;75.60
41884;DHT22;27566;50.930;5.328;2023-11-19T15:50:30;14.70;75.70
41884;DHT22;27566;50.930;5.328;2023-11-19T15:52:56;14.60;75.60
41884;DHT22;27566;50.930;5.328;2023-11-19T15:55:22;14.60;75.80
41884;DHT22;27566;50.930;5.328;2023-11-19T15:57:48;14.60;76.00
41884;DHT22;27566;50.930;5.328;2023-11-19T16:00:14;14.50;75.90
41884;DHT22;27566;50.930;5.328;2023-11-19T16:02:43;14.50;76.10
41884;DHT22;27566;50.930;5.328;2023-11-19T16:05:09;14.50;76.00
41884;DHT22;27566;50.930;5.328;2023-11-19T16:07:35;14.50;76.00
41884;DHT22;27566;50.930;5.328;2023-11-19T16:10:01;14.50;76.00
41884;DHT22;27566;50.930;5.328;2023-11-19T16:12:30;14.50;76.20
41884;DHT22;27566;50.930;5.328;2023-11-19T16:14:56;14.50;75.90
41884;DHT22;27566;50.930;5.328;2023-11-19T16:17:22;14.50;76.20